Time;durP1;ratioP1;P1;durP2;ratioP2;P2;SDS_P1;SDS_P2;PMS_P1;PMS_P2;Temp;Humidity;BMP_temperature;BMP_pressure;BME280_temperature;BME280_humidity;BME280_pressure;Samples;Min_cycle;Max_cycle;Signal;HPM_P1;HPM_P2
2022/09/29 00:00:14;;;;;;;0.40;0.40;;;;;;;9.23;79.01;100035.44;1887032;23;20210;-71
2022/09/29 00:01:16;;;;;;;0.30;0.30;;;;;;;9.20;79.96;100028.81;2051809;28;20332;-71
2022/09/29 00:02:19;;;;;;;0.40;0.40;;;;;;;9.22;79.83;100036.56;2059185;28;20478;-71
2022/09/29 00:03:21;;;;;;;0.30;0.30;;;;;;;9.21;79.34;100037.69;2059465;28;20508;-71
2022/09/29 00:04:24;;;;;;;0.30;0.30;;;;;;;9.20;79.66;100028.81;2053740;28;20121;-71
2022/09/29 00:05:26;;;;;;;0.30;0.30;;;;;;;9.21;78.98;100037.69;2054352;28;20093;-69
2022/09/29 00:06:31;;;;;;;0.30;0.30;;;;;;;9.19;79.92;100038.06;2051906;28;20057;-69
2022/09/29 00:07:33;;;;;;;0.30;0.30;;;;;;;9.18;79.80;100028.38;2053255;28;20509;-69
2022/09/29 00:08:36;;;;;;;0.40;0.40;;;;;;;9.17;79.21;100034.91;2052437;28;20106;-68
2022/09/29 00:09:37;;;;;;;0.30;0.30;;;;;;;9.14;80.12;100027.53;2052415;28;20765;-68
2022/09/29 00:10:40;;;;;;;0.32;0.32;;;;;;;9.12;78.97;100040.56;2053192;28;20055;-68
2022/09/29 00:11:42;;;;;;;0.30;0.30;;;;;;;9.06;79.77;100034.69;2052670;28;20105;-68
2022/09/29 00:12:47;;;;;;;0.30;0.30;;;;;;;9.06;79.81;100040.06;2051390;28;20050;-68
2022/09/29 00:13:49;;;;;;;0.30;0.30;;;;;;;9.04;80.04;100038.84;2053196;28;20717;-69
2022/09/29 00:14:52;;;;;;;0.28;0.28;;;;;;;9.02;80.10;100043.81;2053203;28;20046;-69
2022/09/29 00:15:56;;;;;;;0.32;0.32;;;;;;;9.01;79.45;100036.84;2052779;28;20058;-68
2022/09/29 00:16:59;;;;;;;0.30;0.30;;;;;;;9.01;80.77;100036.84;2052242;28;20548;-69
2022/09/29 00:18:01;;;;;;;0.30;0.30;;;;;;;9.01;80.61;100034.94;2052185;28;20062;-68
2022/09/29 00:19:16;;;;;;;0.30;0.30;;;;;;;9.02;80.06;100038.44;2052092;28;20071;-69
2022/09/29 00:20:18;;;;;;;0.30;0.30;;;;;;;9.03;80.00;100040.78;2051975;28;20422;-69
2022/09/29 00:21:21;;;;;;;0.30;0.30;;;;;;;9.04;79.28;100034.25;2053291;28;20113;-69
2022/09/29 00:22:25;;;;;;;0.30;0.30;;;;;;;9.03;79.03;100038.06;2052690;28;20047;-69
2022/09/29 00:23:30;;;;;;;0.40;0.40;;;;;;;9.01;79.63;100044.91;2051870;28;20061;-69
2022/09/29 00:24:36;;;;;;;0.30;0.30;;;;;;;8.95;79.92;100038.25;2051581;28;20089;-69
2022/09/29 00:25:42;;;;;;;0.30;0.30;;;;;;;8.89;79.86;100034.25;2052151;28;20050;-69
2022/09/29 00:26:49;;;;;;;0.40;0.40;;;;;;;8.82;79.80;100031.38;2053065;28;20673;-69
2022/09/29 00:27:52;;;;;;;0.30;0.30;;;;;;;8.79;79.83;100030.19;2053369;28;20108;-69
2022/09/29 00:28:56;;;;;;;0.30;0.30;;;;;;;8.79;80.17;100029.41;2052392;28;20042;-69
2022/09/29 00:29:59;;;;;;;0.30;0.30;;;;;;;8.76;80.49;100027.41;2053530;28;20461;-69
2022/09/29 00:31:03;;;;;;;0.30;0.30;;;;;;;8.74;80.60;100026.97;2053239;28;20099;-69
2022/09/29 00:32:06;;;;;;;0.30;0.30;;;;;;;8.74;80.77;100038.50;2052628;28;20082;-69
2022/09/29 00:33:07;;;;;;;0.30;0.30;;;;;;;8.69;79.71;100029.91;2053075;28;20738;-69
2022/09/29 00:34:10;;;;;;;0.30;0.30;;;;;;;8.64;80.47;100032.88;2053091;28;20054;-69
2022/09/29 00:35:12;;;;;;;0.30;0.30;;;;;;;8.62;81.07;100029.75;2053660;28;20062;-69
2022/09/29 00:36:19;;;;;;;0.40;0.40;;;;;;;8.61;80.77;100039.72;2053012;28;20043;-69
2022/09/29 00:37:21;;;;;;;0.40;0.40;;;;;;;8.59;81.06;100028.50;2051041;28;20166;-69
2022/09/29 00:38:25;;;;;;;0.40;0.40;;;;;;;8.60;81.21;100040.06;2052265;28;20050;-69
2022/09/29 00:39:27;;;;;;;0.40;0.40;;;;;;;8.58;81.50;100034.25;2052372;28;20074;-69
2022/09/29 00:40:30;;;;;;;0.30;0.30;;;;;;;8.58;81.36;100036.94;2052048;28;20697;-69
2022/09/29 00:41:34;;;;;;;0.40;0.40;;;;;;;8.53;81.76;100031.84;2053034;28;20062;-69
2022/09/29 00:42:37;;;;;;;0.30;0.30;;;;;;;8.49;81.46;100036.31;2052836;28;20051;-69
2022/09/29 00:43:56;;;;;;;0.30;0.30;;;;;;;8.42;81.97;100041.53;2052887;28;20058;-69
2022/09/29 00:45:12;;;;;;;0.35;0.35;;;;;;;8.37;81.72;100044.47;2053216;28;20054;-69
2022/09/29 00:46:18;;;;;;;0.40;0.40;;;;;;;8.33;81.83;100035.50;2052838;28;20098;-69
2022/09/29 00:47:22;;;;;;;0.38;0.38;;;;;;;8.30;82.03;100034.31;2052201;28;20055;-69
2022/09/29 00:48:32;;;;;;;0.40;0.40;;;;;;;8.28;82.81;100038.44;2052589;28;20066;-69
2022/09/29 00:49:41;;;;;;;0.40;0.40;;;;;;;8.25;82.57;100033.75;2052597;28;20504;-69
2022/09/29 00:50:45;;;;;;;0.32;0.32;;;;;;;8.24;82.40;100042.97;2051754;28;20418;-69
2022/09/29 00:51:54;;;;;;;0.40;0.40;;;;;;;8.20;83.01;100032.06;2052737;28;20054;-69
2022/09/29 00:53:01;;;;;;;0.40;0.40;;;;;;;8.21;82.45;100044.41;2052732;28;20133;-69
2022/09/29 00:54:07;;;;;;;0.40;0.40;;;;;;;8.18;83.12;100047.00;2052283;28;20097;-69
2022/09/29 00:55:15;;;;;;;0.35;0.35;;;;;;;8.16;82.32;100046.56;2052384;28;20055;-69
2022/09/29 00:56:19;;;;;;;0.35;0.35;;;;;;;8.16;82.94;100041.97;2052178;28;20105;-69
2022/09/29 00:57:30;;;;;;;0.35;0.35;;;;;;;8.14;83.25;100049.59;2051511;28;20055;-70
2022/09/29 00:58:38;;;;;;;0.40;0.40;;;;;;;8.14;82.72;100051.50;2052759;28;20055;-69
2022/09/29 00:59:46;;;;;;;0.40;0.40;;;;;;;8.13;83.28;100039.97;2053634;28;20561;-69
2022/09/29 01:00:49;;;;;;;0.30;0.30;;;;;;;8.15;82.96;100047.69;2053096;28;20051;-69
2022/09/29 01:01:51;;;;;;;0.40;0.40;;;;;;;8.15;83.28;100045.00;2051937;28;20078;-69
2022/09/29 01:02:59;;;;;;;0.40;0.40;;;;;;;8.14;83.33;100035.34;2051928;28;20134;-69
2022/09/29 01:04:04;;;;;;;0.40;0.40;;;;;;;8.12;82.98;100043.00;2050863;28;20105;-69
2022/09/29 01:05:11;;;;;;;0.38;0.38;;;;;;;8.11;83.84;100047.59;2052209;28;20548;-69
2022/09/29 01:06:18;;;;;;;0.30;0.30;;;;;;;8.10;83.26;100039.88;2053166;28;20059;-69
2022/09/29 01:07:22;;;;;;;0.38;0.38;;;;;;;8.12;83.95;100043.00;2052625;28;20494;-69
2022/09/29 01:08:32;;;;;;;0.35;0.35;;;;;;;8.13;83.82;100041.88;2051834;28;20962;-69
2022/09/29 01:09:39;;;;;;;0.30;0.30;;;;;;;8.14;83.38;100036.16;2051799;28;20278;-70
2022/09/29 01:10:43;;;;;;;0.40;0.40;;;;;;;8.19;82.79;100040.50;2051152;28;20051;-68
2022/09/29 01:11:46;;;;;;;0.40;0.40;;;;;;;8.21;82.46;100039.03;2051401;28;20062;-69
2022/09/29 01:12:49;;;;;;;0.30;0.30;;;;;;;8.22;82.78;100051.34;2052543;28;20053;-69
2022/09/29 01:13:53;;;;;;;0.40;0.40;;;;;;;8.23;82.66;100044.88;2052314;28;20055;-69
2022/09/29 01:14:56;;;;;;;0.40;0.40;;;;;;;8.23;82.24;100046.78;2052051;28;20074;-70
2022/09/29 01:15:58;;;;;;;0.40;0.40;;;;;;;8.20;82.36;100047.41;2052910;28;20502;-70
2022/09/29 01:17:01;;;;;;;0.40;0.40;;;;;;;8.17;82.53;100040.84;2051970;28;20061;-69
2022/09/29 01:18:05;;;;;;;0.50;0.50;;;;;;;8.13;82.49;100037.28;2052733;28;20047;-69
2022/09/29 01:19:14;;;;;;;0.40;0.40;;;;;;;8.10;82.88;100045.25;2052722;28;20463;-69
2022/09/29 01:20:19;;;;;;;0.40;0.40;;;;;;;8.07;82.78;100046.69;2052556;28;20113;-69
2022/09/29 01:21:34;;;;;;;0.40;0.40;;;;;;;8.08;82.98;100044.78;2052541;28;20522;-69
2022/09/29 01:23:05;;;;;;;0.30;0.30;;;;;;;8.07;82.92;100041.31;2051362;28;21932;-69
2022/09/29 01:24:47;;;;;;;0.40;0.40;;;;;;;8.09;83.03;100043.66;2050480;28;20043;-68
2022/09/29 01:26:23;;;;;;;0.40;0.40;;;;;;;8.08;82.82;100050.97;2059470;28;20078;-69
2022/09/29 01:27:55;;;;;;;0.40;0.40;;;;;;;8.10;82.41;100046.03;2055046;28;20058;-69
2022/09/29 01:29:30;;;;;;;0.40;0.40;;;;;;;8.14;82.70;100044.22;2051685;28;20093;-69
2022/09/29 01:30:48;;;;;;;0.40;0.40;;;;;;;8.20;81.72;100042.03;2052022;28;20058;-69
2022/09/29 01:31:56;;;;;;;0.40;0.40;;;;;;;8.23;81.50;100055.63;2052098;28;20061;-70
2022/09/29 01:33:20;;;;;;;0.30;0.30;;;;;;;8.24;81.98;100049.13;2052200;28;20536;-69
2022/09/29 01:34:30;;;;;;;0.30;0.30;;;;;;;8.27;81.55;100058.41;2052138;28;20478;-69
2022/09/29 01:35:42;;;;;;;0.40;0.40;;;;;;;8.27;81.41;100055.72;2050868;28;20067;-70
2022/09/29 01:36:53;;;;;;;0.40;0.40;;;;;;;8.26;82.20;100054.16;2051945;28;20047;-69
2022/09/29 01:38:11;;;;;;;0.40;0.40;;;;;;;8.25;81.51;100050.69;2053718;28;20097;-69
2022/09/29 01:39:18;;;;;;;0.40;0.40;;;;;;;8.27;81.53;100050.34;2053698;28;20259;-69
2022/09/29 01:40:30;;;;;;;0.40;0.40;;;;;;;8.27;81.46;100050.34;2051057;28;20502;-69
2022/09/29 01:41:40;;;;;;;0.40;0.40;;;;;;;8.26;81.57;100048.78;2052479;28;20537;-69
2022/09/29 01:42:51;;;;;;;0.40;0.40;;;;;;;8.25;81.76;100049.91;2051270;28;20078;-69
2022/09/29 01:44:00;;;;;;;0.38;0.38;;;;;;;8.22;82.07;100048.66;2052794;28;20058;-68
2022/09/29 01:45:11;;;;;;;0.35;0.35;;;;;;;8.20;82.05;100052.78;2051661;28;20930;-68
2022/09/29 01:46:22;;;;;;;0.30;0.30;;;;;;;8.10;82.00;100045.25;2052348;28;20082;-69
2022/09/29 01:47:28;;;;;;;0.32;0.32;;;;;;;8.09;82.44;100049.84;2052639;28;20050;-69
2022/09/29 01:48:34;;;;;;;0.30;0.30;;;;;;;8.07;82.62;100048.63;2051338;28;20078;-69
2022/09/29 01:49:43;;;;;;;0.40;0.40;;;;;;;8.03;82.48;100050.41;2051092;28;20054;-69
2022/09/29 01:50:48;;;;;;;0.40;0.40;;;;;;;7.99;82.99;100052.25;2052797;28;20078;-69
2022/09/29 01:51:55;;;;;;;0.40;0.40;;;;;;;7.96;82.37;100050.25;2051761;28;20556;-69
2022/09/29 01:53:03;;;;;;;0.40;0.40;;;;;;;7.91;82.59;100047.78;2050445;28;20693;-69
2022/09/29 01:54:13;;;;;;;0.40;0.40;;;;;;;7.88;82.96;100046.53;2051605;28;20062;-68
2022/09/29 01:55:18;;;;;;;0.40;0.40;;;;;;;7.88;83.25;100051.16;2052445;28;20475;-68
2022/09/29 01:56:26;;;;;;;0.30;0.30;;;;;;;7.88;83.15;100048.47;2052143;28;20055;-68
2022/09/29 01:57:34;;;;;;;0.40;0.40;;;;;;;7.90;83.62;100046.19;2052016;28;20050;-68
2022/09/29 01:58:46;;;;;;;0.40;0.40;;;;;;;7.92;83.31;100049.34;2052261;28;20081;-69
2022/09/29 01:59:54;;;;;;;0.40;0.40;;;;;;;7.94;83.13;100050.56;2052123;28;20051;-69
2022/09/29 02:01:01;;;;;;;0.40;0.40;;;;;;;7.99;82.99;100054.94;2052167;28;20066;-68
2022/09/29 02:02:09;;;;;;;0.35;0.35;;;;;;;8.01;83.00;100047.31;2051825;28;20046;-69
2022/09/29 02:03:17;;;;;;;0.40;0.40;;;;;;;8.03;82.28;100058.47;2052908;28;20054;-68
2022/09/29 02:04:25;;;;;;;0.40;0.40;;;;;;;8.01;82.34;100056.13;2052073;28;20051;-68
2022/09/29 02:05:32;;;;;;;0.30;0.30;;;;;;;8.01;81.96;100058.06;2052400;28;20130;-68
2022/09/29 02:06:44;;;;;;;0.40;0.40;;;;;;;8.00;82.21;100045.72;2052456;28;20465;-69
2022/09/29 02:07:48;;;;;;;0.40;0.40;;;;;;;7.98;82.23;100056.81;2052005;28;20065;-69
2022/09/29 02:08:54;;;;;;;0.30;0.30;;;;;;;7.99;82.94;100052.25;2051932;28;20386;-68
2022/09/29 02:10:00;;;;;;;0.40;0.40;;;;;;;7.98;82.32;100058.72;2052804;28;20046;-69
2022/09/29 02:11:06;;;;;;;0.40;0.40;;;;;;;7.97;82.15;100055.28;2051849;28;20521;-68
2022/09/29 02:12:12;;;;;;;0.35;0.35;;;;;;;7.97;81.73;100052.56;2051956;28;20498;-69
2022/09/29 02:13:15;;;;;;;0.40;0.40;;;;;;;7.95;81.76;100054.81;2052074;28;20109;-69
2022/09/29 02:14:21;;;;;;;0.40;0.40;;;;;;;7.93;82.21;100050.91;2051434;28;20078;-68
2022/09/29 02:15:28;;;;;;;0.40;0.40;;;;;;;7.92;82.07;100060.09;2050727;28;20097;-68
2022/09/29 02:16:34;;;;;;;0.38;0.38;;;;;;;7.89;82.55;100058.09;2051145;28;20059;-68
2022/09/29 02:17:41;;;;;;;0.40;0.40;;;;;;;7.88;81.88;100059.22;2053120;28;20094;-69
2022/09/29 02:18:51;;;;;;;0.40;0.40;;;;;;;7.86;83.01;100062.25;2052320;28;20058;-69
2022/09/29 02:20:00;;;;;;;0.40;0.40;;;;;;;7.84;82.36;100055.63;2053113;28;20062;-68
2022/09/29 02:21:02;;;;;;;0.40;0.40;;;;;;;7.83;82.78;100046.81;2053436;28;20063;-69
2022/09/29 02:22:05;;;;;;;0.40;0.40;;;;;;;7.86;82.57;100050.72;2053241;28;20055;-68
2022/09/29 02:23:07;;;;;;;0.40;0.40;;;;;;;7.86;82.52;100053.41;2053701;28;20051;-69
2022/09/29 02:24:10;;;;;;;0.40;0.40;;;;;;;7.86;82.84;100050.72;2053672;28;20058;-69
2022/09/29 02:25:17;;;;;;;0.40;0.40;;;;;;;7.84;82.80;100053.75;2053741;28;20062;-70
2022/09/29 02:26:20;;;;;;;0.40;0.40;;;;;;;7.83;83.02;100056.78;2051595;28;20097;-69
2022/09/29 02:27:23;;;;;;;0.40;0.40;;;;;;;7.83;82.74;100052.19;2052333;28;20498;-70
2022/09/29 02:28:25;;;;;;;0.40;0.40;;;;;;;7.85;82.99;100059.91;2052838;28;20047;-69
2022/09/29 02:29:28;;;;;;;0.40;0.40;;;;;;;7.85;82.47;100049.91;2054164;28;20062;-69
2022/09/29 02:30:30;;;;;;;0.47;0.47;;;;;;;7.87;82.80;100057.63;2051838;28;20054;-68
2022/09/29 02:31:34;;;;;;;0.50;0.50;;;;;;;7.90;82.96;100055.06;2052850;28;20073;-68
2022/09/29 02:32:37;;;;;;;0.40;0.40;;;;;;;7.92;82.31;100054.72;2053983;28;20062;-68
2022/09/29 02:33:40;;;;;;;0.40;0.40;;;;;;;7.93;82.42;100056.28;2053708;28;20147;-69
2022/09/29 02:34:45;;;;;;;0.40;0.40;;;;;;;7.91;82.36;100048.56;2053609;28;20109;-69
2022/09/29 02:36:01;;;;;;;0.40;0.40;;;;;;;7.92;82.67;100052.03;2053559;28;20395;-69
2022/09/29 02:37:13;;;;;;;0.40;0.40;;;;;;;7.91;82.33;100053.16;2051810;28;20066;-69
2022/09/29 02:38:25;;;;;;;0.40;0.40;;;;;;;7.89;82.29;100058.09;2052654;28;20062;-69
2022/09/29 02:39:39;;;;;;;0.40;0.40;;;;;;;7.85;82.35;100055.28;2054417;28;20058;-68
2022/09/29 02:40:52;;;;;;;0.50;0.50;;;;;;;7.82;82.98;100050.59;2054179;28;20070;-70
2022/09/29 02:42:01;;;;;;;0.40;0.40;;;;;;;7.82;83.18;100052.53;2053885;28;20119;-70
2022/09/29 02:43:29;;;;;;;0.50;0.50;;;;;;;7.73;83.28;100051.88;2053102;28;20061;-70
2022/09/29 02:44:47;;;;;;;0.40;0.40;;;;;;;7.69;83.75;100051.75;2052951;28;20106;-72
2022/09/29 02:46:04;;;;;;;0.40;0.40;;;;;;;7.67;83.36;100053.22;2053262;28;20063;-71
2022/09/29 02:47:25;;;;;;;0.40;0.40;;;;;;;7.64;83.23;100060.84;2053274;28;20433;-71
2022/09/29 02:48:59;;;;;;;0.50;0.50;;;;;;;7.59;84.04;100044.94;2053387;28;20047;-71
2022/09/29 02:50:25;;;;;;;0.50;0.50;;;;;;;7.56;83.92;100052.94;2051237;28;20058;-71
2022/09/29 02:51:33;;;;;;;0.40;0.40;;;;;;;7.54;83.98;100055.16;2053067;28;20177;-71
2022/09/29 02:52:50;;;;;;;0.40;0.40;;;;;;;7.51;83.82;100053.16;2053131;28;20415;-71
2022/09/29 02:54:07;;;;;;;0.50;0.50;;;;;;;7.49;84.20;100052.69;2052922;28;20063;-71
2022/09/29 02:55:17;;;;;;;0.40;0.40;;;;;;;7.47;83.98;100058.41;2052818;28;20059;-71
2022/09/29 02:56:28;;;;;;;0.50;0.50;;;;;;;7.47;84.22;100044.97;2053806;28;20050;-71
2022/09/29 02:57:38;;;;;;;0.40;0.40;;;;;;;7.49;84.53;100064.22;2052826;28;20493;-71
2022/09/29 02:58:49;;;;;;;0.50;0.50;;;;;;;7.52;84.07;100052.81;2060921;28;20061;-71
2022/09/29 02:59:59;;;;;;;0.50;0.50;;;;;;;7.53;84.16;100058.97;2059478;28;20140;-71
2022/09/29 03:01:04;;;;;;;0.40;0.40;;;;;;;7.54;83.82;100053.25;2053286;28;20087;-70
2022/09/29 03:02:06;;;;;;;0.50;0.50;;;;;;;7.53;84.22;100064.34;2052884;28;20090;-71
2022/09/29 03:03:09;;;;;;;0.50;0.50;;;;;;;7.54;83.43;100069.38;2045745;28;20055;-71
2022/09/29 03:04:12;;;;;;;0.40;0.40;;;;;;;7.53;83.83;100059.75;2052689;28;20054;-71
2022/09/29 03:05:18;;;;;;;0.40;0.40;;;;;;;7.51;83.81;100059.31;2052686;28;20101;-70
2022/09/29 03:06:20;;;;;;;0.50;0.50;;;;;;;7.48;83.87;100068.03;2052790;28;20513;-71
2022/09/29 03:07:23;;;;;;;0.50;0.50;;;;;;;7.46;83.72;100064.91;2052871;28;20059;-71
2022/09/29 03:08:25;;;;;;;0.50;0.50;;;;;;;7.41;83.65;100067.81;2053073;28;20077;-71
2022/09/29 03:09:28;;;;;;;0.43;0.43;;;;;;;7.38;83.87;100070.41;2052230;28;20086;-70
2022/09/29 03:10:30;;;;;;;0.50;0.50;;;;;;;7.35;84.09;100071.88;2053170;28;20169;-70
2022/09/29 03:11:33;;;;;;;0.40;0.40;;;;;;;7.33;83.86;100070.63;2053654;28;20434;-70
2022/09/29 03:12:35;;;;;;;0.50;0.50;;;;;;;7.31;84.06;100073.66;2052324;28;20114;-70
2022/09/29 03:13:38;;;;;;;0.52;0.52;;;;;;;7.31;83.91;100072.84;2052799;28;20055;-71
2022/09/29 03:14:40;;;;;;;0.50;0.50;;;;;;;7.27;84.27;100070.06;2052711;28;20047;-70
2022/09/29 03:15:43;;;;;;;0.47;0.47;;;;;;;7.25;84.37;100064.25;2053158;28;20059;-70
2022/09/29 03:16:46;;;;;;;0.40;0.40;;;;;;;7.24;84.41;100075.34;2052746;28;20308;-70
2022/09/29 03:17:49;;;;;;;0.50;0.50;;;;;;;7.21;84.69;100068.75;2054124;28;20046;-71
2022/09/29 03:18:51;;;;;;;0.50;0.50;;;;;;;7.20;84.67;100072.53;2054415;28;20055;-70
2022/09/29 03:19:55;;;;;;;0.40;0.40;;;;;;;7.20;84.97;100069.06;2054549;28;20173;-70
2022/09/29 03:20:57;;;;;;;0.47;0.47;;;;;;;7.20;84.47;100075.22;2060033;28;20079;-70
2022/09/29 03:22:00;;;;;;;0.40;0.40;;;;;;;7.20;84.19;100075.22;2051364;28;20055;-70
2022/09/29 03:23:02;;;;;;;0.50;0.50;;;;;;;7.21;84.74;100074.13;2053252;28;20438;-70
2022/09/29 03:24:05;;;;;;;0.40;0.40;;;;;;;7.19;84.38;100076.34;2052525;28;20138;-70
2022/09/29 03:25:08;;;;;;;0.40;0.40;;;;;;;7.18;84.60;100074.00;2053166;28;20054;-70
2022/09/29 03:26:11;;;;;;;0.40;0.40;;;;;;;7.18;84.26;100074.00;2052834;28;20061;-70
2022/09/29 03:27:13;;;;;;;0.40;0.40;;;;;;;7.15;84.92;100072.00;2052607;28;20059;-71
2022/09/29 03:28:16;;;;;;;0.40;0.40;;;;;;;7.14;84.95;100071.19;2053550;28;20419;-70
2022/09/29 03:29:18;;;;;;;0.50;0.50;;;;;;;7.12;85.27;100073.44;2051653;28;20054;-70
2022/09/29 03:30:22;;;;;;;0.45;0.45;;;;;;;7.10;85.41;100072.97;2053723;28;20050;-70
2022/09/29 03:31:24;;;;;;;0.40;0.40;;;;;;;7.08;85.07;100067.19;2053321;28;20568;-71
2022/09/29 03:32:27;;;;;;;0.43;0.43;;;;;;;7.07;84.90;100072.88;2052899;28;20062;-69
2022/09/29 03:33:29;;;;;;;0.50;0.50;;;;;;;7.05;84.84;100070.53;2051118;28;20047;-70
2022/09/29 03:34:32;;;;;;;0.50;0.50;;;;;;;7.04;85.69;100066.25;2053086;28;20090;-69
2022/09/29 03:35:35;;;;;;;0.50;0.50;;;;;;;7.07;85.25;100068.28;2052966;28;20482;-70
2022/09/29 03:36:40;;;;;;;0.40;0.40;;;;;;;7.10;85.55;100069.53;2053580;28;20518;-70
2022/09/29 03:37:42;;;;;;;0.50;0.50;;;;;;;7.10;85.76;100067.59;2053037;28;20116;-70
2022/09/29 03:38:46;;;;;;;0.50;0.50;;;;;;;7.12;85.07;100068.06;2053470;28;20055;-70
2022/09/29 03:39:48;;;;;;;0.45;0.45;;;;;;;7.11;85.55;100074.56;2052280;28;20426;-71
2022/09/29 03:40:51;;;;;;;0.40;0.40;;;;;;;7.12;84.93;100075.34;2052480;28;20502;-70
2022/09/29 03:41:54;;;;;;;0.40;0.40;;;;;;;7.09;85.45;100071.41;2052603;28;20081;-71
2022/09/29 03:42:56;;;;;;;0.50;0.50;;;;;;;7.10;85.60;100078.34;2051953;28;20146;-71
2022/09/29 03:43:59;;;;;;;0.50;0.50;;;;;;;7.09;85.23;100084.84;2052527;28;20050;-70
2022/09/29 03:45:01;;;;;;;0.40;0.40;;;;;;;7.08;85.60;100077.91;2052662;28;20066;-70
2022/09/29 03:46:04;;;;;;;0.60;0.60;;;;;;;7.06;85.12;100080.13;2053603;28;20126;-70
2022/09/29 03:47:07;;;;;;;0.50;0.50;;;;;;;7.07;85.41;100083.63;2053405;28;20410;-70
2022/09/29 03:48:10;;;;;;;0.50;0.50;;;;;;;7.07;85.65;100079.00;2052457;28;20490;-70
2022/09/29 03:49:13;;;;;;;0.47;0.47;;;;;;;7.09;85.71;100082.16;2054135;28;20050;-70
2022/09/29 03:50:17;;;;;;;0.50;0.50;;;;;;;7.08;85.89;100083.28;2046556;28;20051;-71
2022/09/29 03:51:20;;;;;;;0.60;0.60;;;;;;;7.07;85.97;100084.38;2045003;28;20051;-71
2022/09/29 03:52:23;;;;;;;0.52;0.52;;;;;;;7.03;85.47;100082.69;2052253;28;20105;-71
2022/09/29 03:53:25;;;;;;;0.60;0.60;;;;;;;7.01;85.52;100087.63;2052621;28;20058;-71
2022/09/29 03:54:28;;;;;;;0.70;0.70;;;;;;;6.99;85.54;100081.81;2052421;28;20059;-71
2022/09/29 03:55:30;;;;;;;0.60;0.60;;;;;;;6.97;85.10;100084.06;2052736;28;20464;-71
2022/09/29 03:56:33;;;;;;;0.60;0.60;;;;;;;6.93;85.39;100083.94;2052165;28;20120;-70
2022/09/29 03:57:35;;;;;;;0.50;0.50;;;;;;;6.91;85.16;100086.16;2043978;28;20070;-70
2022/09/29 03:58:38;;;;;;;0.50;0.50;;;;;;;6.90;85.25;100089.16;2045557;28;20082;-71
2022/09/29 03:59:40;;;;;;;0.60;0.60;;;;;;;6.87;85.76;100087.94;2052452;28;20046;-70
2022/09/29 04:00:48;;;;;;;0.88;0.80;;;;;;;6.86;85.71;100083.72;2052568;28;20071;-70
2022/09/29 04:01:51;;;;;;;0.50;0.50;;;;;;;6.86;85.86;100081.03;2053019;28;20065;-70
2022/09/29 04:02:54;;;;;;;0.90;0.77;;;;;;;6.86;85.81;100083.72;2053723;28;20096;-70
2022/09/29 04:03:57;;;;;;;0.60;0.60;;;;;;;6.85;85.40;100082.13;2053434;28;20066;-71
2022/09/29 04:04:59;;;;;;;0.70;0.65;;;;;;;6.84;85.33;100080.56;2051790;28;20059;-71
2022/09/29 04:06:02;;;;;;;0.70;0.70;;;;;;;6.82;85.10;100088.16;2051783;28;20097;-71
2022/09/29 04:07:06;;;;;;;0.70;0.70;;;;;;;6.78;85.42;100086.47;2052094;28;20061;-70
2022/09/29 04:08:08;;;;;;;0.70;0.70;;;;;;;6.76;84.44;100088.72;2052782;28;20395;-70
2022/09/29 04:09:11;;;;;;;0.73;0.73;;;;;;;6.74;85.02;100083.69;2052658;28;20050;-71
2022/09/29 04:10:13;;;;;;;0.75;0.70;;;;;;;6.68;84.92;100086.91;2045620;28;20063;-71
2022/09/29 04:11:16;;;;;;;0.65;0.65;;;;;;;6.67;85.05;100086.13;2053136;28;20062;-71
2022/09/29 04:12:18;;;;;;;0.60;0.60;;;;;;;6.66;85.04;100089.16;2059414;28;20655;-71
2022/09/29 04:13:21;;;;;;;0.70;0.70;;;;;;;6.62;85.79;100089.03;2052900;28;20058;-71
2022/09/29 04:14:23;;;;;;;0.60;0.60;;;;;;;6.62;85.74;100089.03;2052396;28;20600;-71
2022/09/29 04:15:26;;;;;;;0.70;0.70;;;;;;;6.60;85.48;100091.25;2052735;28;20055;-71
2022/09/29 04:16:29;;;;;;;0.60;0.60;;;;;;;6.58;86.06;100090.03;2053032;28;20113;-71
2022/09/29 04:17:31;;;;;;;0.70;0.70;;;;;;;6.57;85.73;100097.28;2052646;28;20062;-71
2022/09/29 04:18:34;;;;;;;0.50;0.50;;;;;;;6.56;86.17;100090.38;2052660;28;20059;-71
2022/09/29 04:19:37;;;;;;;0.60;0.60;;;;;;;6.56;85.37;100094.94;2053095;28;20058;-71
2022/09/29 04:20:40;;;;;;;0.60;0.60;;;;;;;6.56;85.44;100101.09;2051824;28;20063;-71
2022/09/29 04:21:42;;;;;;;0.70;0.70;;;;;;;6.56;85.48;100090.38;2052465;28;20054;-70
2022/09/29 04:22:46;;;;;;;0.60;0.60;;;;;;;6.58;85.56;100100.75;2051749;28;20442;-71
2022/09/29 04:23:48;;;;;;;0.50;0.50;;;;;;;6.58;86.50;100098.84;2052432;28;20051;-71
2022/09/29 04:24:52;;;;;;;0.60;0.60;;;;;;;6.58;85.59;100093.47;2053162;28;20479;-69
2022/09/29 04:25:54;;;;;;;0.63;0.63;;;;;;;6.59;86.43;100089.69;2052434;28;20305;-70
2022/09/29 04:26:57;;;;;;;0.60;0.60;;;;;;;6.58;86.35;100088.09;2053270;28;20066;-70
2022/09/29 04:27:59;;;;;;;0.60;0.60;;;;;;;6.60;86.30;100096.63;2050533;28;20099;-70
2022/09/29 04:29:02;;;;;;;0.50;0.50;;;;;;;6.60;85.87;100093.13;2051363;28;20126;-70
2022/09/29 04:30:05;;;;;;;0.50;0.50;;;;;;;6.60;85.72;100101.97;2053284;28;20062;-70
2022/09/29 04:31:09;;;;;;;0.40;0.40;;;;;;;6.59;85.41;100095.06;2051935;28;20121;-70
2022/09/29 04:32:11;;;;;;;0.50;0.50;;;;;;;6.58;86.40;100098.06;2044433;28;20055;-70
2022/09/29 04:33:14;;;;;;;0.50;0.50;;;;;;;6.55;85.75;100096.81;2052323;28;20538;-70
2022/09/29 04:34:16;;;;;;;0.40;0.40;;;;;;;6.55;85.75;100104.88;2053001;28;20109;-70
2022/09/29 04:35:21;;;;;;;0.60;0.60;;;;;;;6.54;85.48;100102.50;2053075;28;20058;-70
2022/09/29 04:36:23;;;;;;;0.47;0.47;;;;;;;6.51;86.07;100101.28;2052135;28;20055;-70
2022/09/29 04:37:26;;;;;;;0.50;0.50;;;;;;;6.49;87.25;100103.50;2053071;28;20581;-70
2022/09/29 04:38:30;;;;;;;0.50;0.50;;;;;;;6.48;87.15;100101.16;2052694;28;20077;-71
2022/09/29 04:39:32;;;;;;;0.50;0.50;;;;;;;6.46;86.78;100106.84;2052775;28;20054;-70
2022/09/29 04:40:35;;;;;;;0.40;0.40;;;;;;;6.48;86.69;100106.53;2052793;28;20093;-70
2022/09/29 04:41:38;;;;;;;0.40;0.40;;;;;;;6.49;86.41;100100.84;2053280;28;20530;-70
2022/09/29 04:42:40;;;;;;;0.50;0.50;;;;;;;6.51;87.15;100103.97;2053163;28;20489;-70
2022/09/29 04:43:43;;;;;;;0.40;0.40;;;;;;;6.56;86.83;100106.44;2052873;28;20561;-71
2022/09/29 04:44:45;;;;;;;0.50;0.50;;;;;;;6.57;86.63;100102.66;2053047;28;20100;-71
2022/09/29 04:45:49;;;;;;;0.40;0.40;;;;;;;6.58;86.16;100108.81;2052443;28;20470;-71
2022/09/29 04:46:52;;;;;;;0.40;0.40;;;;;;;6.57;86.74;100110.69;2052136;28;20105;-71
2022/09/29 04:47:54;;;;;;;0.50;0.50;;;;;;;6.57;86.46;100113.38;2051825;28;20066;-71
2022/09/29 04:48:57;;;;;;;0.50;0.50;;;;;;;6.57;86.71;100110.69;2051529;28;20063;-71
2022/09/29 04:49:59;;;;;;;0.50;0.50;;;;;;;6.53;86.14;100112.47;2052244;28;20149;-71
2022/09/29 04:51:02;;;;;;;0.50;0.50;;;;;;;6.52;86.30;100113.56;2051663;28;20052;-71
2022/09/29 04:52:04;;;;;;;0.50;0.50;;;;;;;6.50;86.49;100115.78;2051559;28;20058;-71
2022/09/29 04:53:08;;;;;;;0.50;0.50;;;;;;;6.46;86.79;100111.44;2052191;28;20070;-70
2022/09/29 04:54:11;;;;;;;0.40;0.40;;;;;;;6.46;85.75;100114.09;2052495;28;20132;-70
2022/09/29 04:55:14;;;;;;;0.50;0.50;;;;;;;6.46;86.64;100119.47;2043873;28;20118;-70
2022/09/29 04:56:16;;;;;;;0.50;0.50;;;;;;;6.46;86.25;100114.09;2043559;28;20450;-70
2022/09/29 04:57:19;;;;;;;0.50;0.50;;;;;;;6.45;86.17;100121.38;2052300;28;20113;-70
2022/09/29 04:58:21;;;;;;;0.50;0.50;;;;;;;6.45;86.57;100121.38;2051461;28;20051;-70
2022/09/29 04:59:24;;;;;;;0.55;0.55;;;;;;;6.47;86.37;100123.75;2051684;28;20561;-70
2022/09/29 05:00:26;;;;;;;0.50;0.50;;;;;;;6.47;86.46;100119.13;2052048;28;20062;-70
2022/09/29 05:01:29;;;;;;;0.50;0.50;;;;;;;6.47;86.06;100119.13;2051706;28;20059;-71
2022/09/29 05:02:32;;;;;;;0.50;0.50;;;;;;;6.48;86.40;100118.03;2051800;28;20103;-70
2022/09/29 05:03:35;;;;;;;0.50;0.50;;;;;;;6.49;86.29;100124.97;2052503;28;20734;-70
2022/09/29 05:04:37;;;;;;;0.50;0.50;;;;;;;6.50;86.04;100115.03;2052795;28;20055;-70
2022/09/29 05:05:40;;;;;;;0.40;0.40;;;;;;;6.51;85.47;100117.38;2053097;28;20050;-70
2022/09/29 05:06:42;;;;;;;0.50;0.50;;;;;;;6.53;85.78;100125.88;2053540;28;20399;-70
2022/09/29 05:07:45;;;;;;;0.50;0.50;;;;;;;6.54;85.08;100130.13;2052236;28;20145;-70
2022/09/29 05:08:47;;;;;;;0.50;0.50;;;;;;;6.53;86.38;100123.19;2052256;28;20077;-71
2022/09/29 05:09:52;;;;;;;0.60;0.60;;;;;;;6.53;86.07;100127.78;2052612;28;20053;-71